sensor_id;sensor_type;location;lat;lon;timestamp;P1;durP1;ratioP1;P2;durP2;ratioP2
32196;SDS011;18697;42.770;23.400;2022-09-25T13:38:20;1.95;;;1.85;;
32196;SDS011;18697;42.770;23.400;2022-09-25T13:41:09;5.65;;;1.83;;
32196;SDS011;18697;42.770;23.400;2022-09-25T13:43:36;2.35;;;1.98;;
32196;SDS011;18697;42.770;23.400;2022-09-25T13:48:48;3.75;;;1.83;;
32196;SDS011;18697;42.770;23.400;2022-09-25T13:56:48;8.57;;;1.80;;
32196;SDS011;18697;42.770;23.400;2022-09-25T14:01:44;2.53;;;1.80;;
32196;SDS011;18697;42.770;23.400;2022-09-25T14:06:44;2.28;;;1.77;;
32196;SDS011;18697;42.770;23.400;2022-09-25T14:09:16;1.40;;;1.30;;
32196;SDS011;18697;42.770;23.400;2022-09-25T14:14:44;3.03;;;1.98;;
32196;SDS011;18697;42.770;23.400;2022-09-25T14:17:22;1.60;;;1.50;;
32196;SDS011;18697;42.770;23.400;2022-09-25T14:19:52;1.95;;;1.75;;
32196;SDS011;18697;42.770;23.400;2022-09-25T14:24:53;3.67;;;1.88;;
32196;SDS011;18697;42.770;23.400;2022-09-25T14:27:20;1.65;;;1.55;;
32196;SDS011;18697;42.770;23.400;2022-09-25T14:29:51;1.73;;;1.63;;
32196;SDS011;18697;42.770;23.400;2022-09-25T14:32:36;3.13;;;1.53;;
32196;SDS011;18697;42.770;23.400;2022-09-25T14:46:07;2.08;;;1.75;;
32196;SDS011;18697;42.770;23.400;2022-09-25T14:48:40;4.95;;;2.00;;
32196;SDS011;18697;42.770;23.400;2022-09-25T14:51:09;2.72;;;1.50;;
32196;SDS011;18697;42.770;23.400;2022-09-25T14:53:40;8.18;;;2.03;;
32196;SDS011;18697;42.770;23.400;2022-09-25T14:56:09;2.40;;;1.85;;
32196;SDS011;18697;42.770;23.400;2022-09-25T14:58:49;2.63;;;1.75;;
32196;SDS011;18697;42.770;23.400;2022-09-25T15:01:23;2.88;;;1.80;;
32196;SDS011;18697;42.770;23.400;2022-09-25T15:03:51;3.65;;;1.60;;
32196;SDS011;18697;42.770;23.400;2022-09-25T15:06:24;4.00;;;1.55;;
32196;SDS011;18697;42.770;23.400;2022-09-25T15:08:55;6.57;;;1.73;;
32196;SDS011;18697;42.770;23.400;2022-09-25T15:11:22;2.55;;;1.50;;
32196;SDS011;18697;42.770;23.400;2022-09-25T15:13:53;3.85;;;2.00;;
32196;SDS011;18697;42.770;23.400;2022-09-25T15:16:32;1.67;;;1.58;;
32196;SDS011;18697;42.770;23.400;2022-09-25T15:19:23;1.80;;;1.70;;
32196;SDS011;18697;42.770;23.400;2022-09-25T15:21:52;1.88;;;1.40;;
32196;SDS011;18697;42.770;23.400;2022-09-25T15:24:22;3.55;;;1.67;;
32196;SDS011;18697;42.770;23.400;2022-09-25T15:26:55;1.83;;;1.50;;
32196;SDS011;18697;42.770;23.400;2022-09-25T15:29:27;1.80;;;1.50;;
32196;SDS011;18697;42.770;23.400;2022-09-25T15:31:55;1.80;;;1.70;;
32196;SDS011;18697;42.770;23.400;2022-09-25T15:36:50;3.38;;;1.60;;
32196;SDS011;18697;42.770;23.400;2022-09-25T15:39:19;3.47;;;1.70;;
32196;SDS011;18697;42.770;23.400;2022-09-25T15:41:47;1.50;;;1.40;;
32196;SDS011;18697;42.770;23.400;2022-09-25T15:44:23;2.10;;;1.70;;
32196;SDS011;18697;42.770;23.400;2022-09-25T15:49:18;2.83;;;1.58;;
32196;SDS011;18697;42.770;23.400;2022-09-25T15:52:03;7.05;;;2.25;;
32196;SDS011;18697;42.770;23.400;2022-09-25T15:54:34;6.30;;;1.80;;
32196;SDS011;18697;42.770;23.400;2022-09-25T15:57:03;5.90;;;1.67;;
32196;SDS011;18697;42.770;23.400;2022-09-25T15:59:36;3.80;;;1.58;;
32196;SDS011;18697;42.770;23.400;2022-09-25T16:02:27;1.98;;;1.67;;
32196;SDS011;18697;42.770;23.400;2022-09-25T16:05:13;2.92;;;1.80;;
32196;SDS011;18697;42.770;23.400;2022-09-25T16:07:44;2.22;;;1.60;;
32196;SDS011;18697;42.770;23.400;2022-09-25T16:17:55;2.20;;;1.85;;
32196;SDS011;18697;42.770;23.400;2022-09-25T16:22:51;2.95;;;2.13;;
32196;SDS011;18697;42.770;23.400;2022-09-25T16:25:31;3.42;;;2.33;;
32196;SDS011;18697;42.770;23.400;2022-09-25T16:28:04;3.90;;;2.00;;
32196;SDS011;18697;42.770;23.400;2022-09-25T16:30:32;3.78;;;1.85;;
32196;SDS011;18697;42.770;23.400;2022-09-25T16:33:46;3.30;;;2.67;;
32196;SDS011;18697;42.770;23.400;2022-09-25T16:35:49;3.13;;;1.98;;
32196;SDS011;18697;42.770;23.400;2022-09-25T16:38:26;3.97;;;2.35;;
32196;SDS011;18697;42.770;23.400;2022-09-25T16:41:00;9.23;;;5.93;;
32196;SDS011;18697;42.770;23.400;2022-09-25T16:43:31;16.15;;;8.75;;
32196;SDS011;18697;42.770;23.400;2022-09-25T16:46:00;10.75;;;5.43;;
32196;SDS011;18697;42.770;23.400;2022-09-25T16:48:37;2.58;;;1.90;;
32196;SDS011;18697;42.770;23.400;2022-09-25T16:53:30;13.45;;;7.45;;
32196;SDS011;18697;42.770;23.400;2022-09-25T16:55:56;17.52;;;10.77;;
32196;SDS011;18697;42.770;23.400;2022-09-25T16:58:23;26.15;;;13.85;;
32196;SDS011;18697;42.770;23.400;2022-09-25T17:00:49;23.63;;;11.88;;
32196;SDS011;18697;42.770;23.400;2022-09-25T17:03:14;17.10;;;9.68;;
32196;SDS011;18697;42.770;23.400;2022-09-25T17:05:41;5.38;;;4.43;;
32196;SDS011;18697;42.770;23.400;2022-09-25T17:08:24;16.27;;;8.43;;
32196;SDS011;18697;42.770;23.400;2022-09-25T17:10:50;7.22;;;4.95;;
32196;SDS011;18697;42.770;23.400;2022-09-25T17:13:17;13.55;;;7.93;;
32196;SDS011;18697;42.770;23.400;2022-09-25T17:15:48;10.43;;;7.43;;
32196;SDS011;18697;42.770;23.400;2022-09-25T17:18:19;12.68;;;7.43;;
32196;SDS011;18697;42.770;23.400;2022-09-25T17:20:45;12.10;;;7.35;;
32196;SDS011;18697;42.770;23.400;2022-09-25T17:23:15;12.32;;;6.70;;
32196;SDS011;18697;42.770;23.400;2022-09-25T17:25:46;12.27;;;6.18;;
32196;SDS011;18697;42.770;23.400;2022-09-25T17:28:14;8.68;;;4.85;;
32196;SDS011;18697;42.770;23.400;2022-09-25T17:30:41;11.10;;;6.97;;
32196;SDS011;18697;42.770;23.400;2022-09-25T17:33:14;13.88;;;6.28;;
32196;SDS011;18697;42.770;23.400;2022-09-25T17:35:45;17.55;;;6.78;;
32196;SDS011;18697;42.770;23.400;2022-09-25T17:38:15;11.15;;;6.78;;
32196;SDS011;18697;42.770;23.400;2022-09-25T17:40:41;11.85;;;6.80;;
32196;SDS011;18697;42.770;23.400;2022-09-25T17:43:09;17.02;;;8.07;;
32196;SDS011;18697;42.770;23.400;2022-09-25T17:45:57;16.30;;;8.27;;
32196;SDS011;18697;42.770;23.400;2022-09-25T17:50:58;14.32;;;7.40;;
32196;SDS011;18697;42.770;23.400;2022-09-25T17:53:33;12.35;;;7.13;;
32196;SDS011;18697;42.770;23.400;2022-09-25T17:55:59;10.88;;;6.85;;
32196;SDS011;18697;42.770;23.400;2022-09-25T17:58:26;12.80;;;7.53;;
32196;SDS011;18697;42.770;23.400;2022-09-25T18:00:53;11.65;;;6.13;;
32196;SDS011;18697;42.770;23.400;2022-09-25T18:03:19;9.63;;;6.03;;
32196;SDS011;18697;42.770;23.400;2022-09-25T18:05:45;9.77;;;6.65;;
32196;SDS011;18697;42.770;23.400;2022-09-25T18:08:11;10.07;;;5.40;;
32196;SDS011;18697;42.770;23.400;2022-09-25T18:10:37;6.82;;;5.03;;
32196;SDS011;18697;42.770;23.400;2022-09-25T18:13:04;7.70;;;5.68;;
32196;SDS011;18697;42.770;23.400;2022-09-25T18:15:31;12.18;;;5.90;;
32196;SDS011;18697;42.770;23.400;2022-09-25T18:17:58;11.57;;;6.10;;
32196;SDS011;18697;42.770;23.400;2022-09-25T18:20:24;7.53;;;6.10;;
32196;SDS011;18697;42.770;23.400;2022-09-25T18:23:08;9.15;;;5.60;;
32196;SDS011;18697;42.770;23.400;2022-09-25T18:25:34;8.15;;;5.72;;
32196;SDS011;18697;42.770;23.400;2022-09-25T18:28:03;9.50;;;6.68;;
32196;SDS011;18697;42.770;23.400;2022-09-25T18:30:29;10.68;;;6.38;;
32196;SDS011;18697;42.770;23.400;2022-09-25T18:32:54;9.77;;;6.03;;
32196;SDS011;18697;42.770;23.400;2022-09-25T18:35:20;16.35;;;8.32;;
32196;SDS011;18697;42.770;23.400;2022-09-25T18:37:46;14.23;;;8.15;;
32196;SDS011;18697;42.770;23.400;2022-09-25T18:40:13;11.07;;;7.95;;
32196;SDS011;18697;42.770;23.400;2022-09-25T18:42:41;16.15;;;8.35;;
32196;SDS011;18697;42.770;23.400;2022-09-25T18:45:08;12.15;;;7.32;;
32196;SDS011;18697;42.770;23.400;2022-09-25T18:47:36;13.35;;;6.95;;
32196;SDS011;18697;42.770;23.400;2022-09-25T18:50:02;16.08;;;9.40;;
32196;SDS011;18697;42.770;23.400;2022-09-25T18:52:28;12.27;;;7.68;;
32196;SDS011;18697;42.770;23.400;2022-09-25T18:54:53;11.95;;;7.15;;
32196;SDS011;18697;42.770;23.400;2022-09-25T18:59:44;16.83;;;7.72;;
32196;SDS011;18697;42.770;23.400;2022-09-25T19:02:12;11.30;;;6.78;;
32196;SDS011;18697;42.770;23.400;2022-09-25T19:04:43;10.68;;;6.68;;
32196;SDS011;18697;42.770;23.400;2022-09-25T19:07:09;10.95;;;6.65;;
32196;SDS011;18697;42.770;23.400;2022-09-25T19:09:34;13.60;;;6.95;;
32196;SDS011;18697;42.770;23.400;2022-09-25T19:12:00;10.82;;;7.00;;
32196;SDS011;18697;42.770;23.400;2022-09-25T19:16:51;12.98;;;6.93;;
32196;SDS011;18697;42.770;23.400;2022-09-25T19:19:17;10.85;;;7.35;;
32196;SDS011;18697;42.770;23.400;2022-09-25T19:24:09;18.17;;;8.77;;
32196;SDS011;18697;42.770;23.400;2022-09-25T19:26:35;10.77;;;6.63;;
32196;SDS011;18697;42.770;23.400;2022-09-25T19:29:01;22.42;;;10.90;;
32196;SDS011;18697;42.770;23.400;2022-09-25T19:31:28;9.35;;;6.60;;
32196;SDS011;18697;42.770;23.400;2022-09-25T19:33:54;12.68;;;7.53;;
32196;SDS011;18697;42.770;23.400;2022-09-25T19:36:21;13.45;;;7.22;;
32196;SDS011;18697;42.770;23.400;2022-09-25T19:38:51;10.15;;;6.35;;
32196;SDS011;18697;42.770;23.400;2022-09-25T19:41:21;11.63;;;6.93;;
32196;SDS011;18697;42.770;23.400;2022-09-25T19:43:50;13.20;;;7.43;;
32196;SDS011;18697;42.770;23.400;2022-09-25T19:46:16;10.40;;;6.97;;
32196;SDS011;18697;42.770;23.400;2022-09-25T19:48:43;13.40;;;6.70;;
32196;SDS011;18697;42.770;23.400;2022-09-25T19:51:10;13.63;;;7.20;;
32196;SDS011;18697;42.770;23.400;2022-09-25T19:53:37;8.30;;;6.07;;
32196;SDS011;18697;42.770;23.400;2022-09-25T19:56:04;12.38;;;6.60;;
32196;SDS011;18697;42.770;23.400;2022-09-25T19:58:30;20.52;;;11.65;;
32196;SDS011;18697;42.770;23.400;2022-09-25T20:00:59;46.58;;;22.88;;
32196;SDS011;18697;42.770;23.400;2022-09-25T20:03:25;22.88;;;11.95;;
32196;SDS011;18697;42.770;23.400;2022-09-25T20:05:50;47.55;;;24.98;;
32196;SDS011;18697;42.770;23.400;2022-09-25T20:08:16;35.30;;;16.27;;
32196;SDS011;18697;42.770;23.400;2022-09-25T20:10:41;38.78;;;17.95;;
32196;SDS011;18697;42.770;23.400;2022-09-25T20:13:07;64.55;;;26.23;;
32196;SDS011;18697;42.770;23.400;2022-09-25T20:15:34;38.88;;;16.35;;
32196;SDS011;18697;42.770;23.400;2022-09-25T20:17:59;21.95;;;10.57;;
32196;SDS011;18697;42.770;23.400;2022-09-25T20:20:26;15.90;;;8.60;;
32196;SDS011;18697;42.770;23.400;2022-09-25T20:22:53;23.88;;;10.35;;
32196;SDS011;18697;42.770;23.400;2022-09-25T20:25:20;27.52;;;12.13;;
32196;SDS011;18697;42.770;23.400;2022-09-25T20:27:46;27.17;;;12.98;;
32196;SDS011;18697;42.770;23.400;2022-09-25T20:30:12;21.88;;;10.20;;
32196;SDS011;18697;42.770;23.400;2022-09-25T20:32:38;19.92;;;10.43;;
32196;SDS011;18697;42.770;23.400;2022-09-25T20:37:29;22.45;;;10.73;;
32196;SDS011;18697;42.770;23.400;2022-09-25T20:39:55;24.25;;;10.70;;
32196;SDS011;18697;42.770;23.400;2022-09-25T20:44:45;23.90;;;11.77;;
32196;SDS011;18697;42.770;23.400;2022-09-25T20:49:36;20.23;;;11.00;;
32196;SDS011;18697;42.770;23.400;2022-09-25T20:52:03;18.40;;;9.75;;
32196;SDS011;18697;42.770;23.400;2022-09-25T20:54:28;17.45;;;9.77;;
32196;SDS011;18697;42.770;23.400;2022-09-25T20:56:54;18.80;;;10.13;;
32196;SDS011;18697;42.770;23.400;2022-09-25T20:59:19;20.42;;;10.75;;
32196;SDS011;18697;42.770;23.400;2022-09-25T21:04:10;17.27;;;9.30;;
32196;SDS011;18697;42.770;23.400;2022-09-25T21:06:39;15.23;;;8.77;;
32196;SDS011;18697;42.770;23.400;2022-09-25T21:09:26;15.55;;;9.18;;
32196;SDS011;18697;42.770;23.400;2022-09-25T21:11:51;13.30;;;7.90;;
32196;SDS011;18697;42.770;23.400;2022-09-25T21:14:18;13.20;;;8.70;;
32196;SDS011;18697;42.770;23.400;2022-09-25T21:16:48;12.55;;;8.35;;
32196;SDS011;18697;42.770;23.400;2022-09-25T21:19:15;14.70;;;9.30;;
32196;SDS011;18697;42.770;23.400;2022-09-25T21:21:42;11.95;;;7.10;;
32196;SDS011;18697;42.770;23.400;2022-09-25T21:24:11;10.63;;;6.90;;
32196;SDS011;18697;42.770;23.400;2022-09-25T21:26:38;12.77;;;8.27;;
32196;SDS011;18697;42.770;23.400;2022-09-25T21:29:03;14.85;;;8.65;;
32196;SDS011;18697;42.770;23.400;2022-09-25T21:33:59;13.88;;;7.88;;
32196;SDS011;18697;42.770;23.400;2022-09-25T21:36:25;11.63;;;7.78;;
32196;SDS011;18697;42.770;23.400;2022-09-25T21:38:51;11.52;;;7.80;;
32196;SDS011;18697;42.770;23.400;2022-09-25T21:41:18;13.10;;;7.18;;
32196;SDS011;18697;42.770;23.400;2022-09-25T21:43:45;12.23;;;7.30;;
32196;SDS011;18697;42.770;23.400;2022-09-25T21:46:16;12.98;;;7.93;;
32196;SDS011;18697;42.770;23.400;2022-09-25T21:48:49;15.27;;;8.35;;
32196;SDS011;18697;42.770;23.400;2022-09-25T21:51:15;11.30;;;7.30;;
32196;SDS011;18697;42.770;23.400;2022-09-25T21:53:42;10.57;;;6.82;;
32196;SDS011;18697;42.770;23.400;2022-09-25T21:56:09;13.20;;;7.20;;
32196;SDS011;18697;42.770;23.400;2022-09-25T21:58:36;12.77;;;7.50;;
32196;SDS011;18697;42.770;23.400;2022-09-25T22:01:09;9.55;;;6.22;;
32196;SDS011;18697;42.770;23.400;2022-09-25T22:03:37;12.20;;;7.35;;
32196;SDS011;18697;42.770;23.400;2022-09-25T22:06:06;14.63;;;10.35;;
32196;SDS011;18697;42.770;23.400;2022-09-25T22:08:34;19.67;;;11.52;;
32196;SDS011;18697;42.770;23.400;2022-09-25T22:11:02;11.05;;;7.22;;
32196;SDS011;18697;42.770;23.400;2022-09-25T22:13:29;10.38;;;6.88;;
32196;SDS011;18697;42.770;23.400;2022-09-25T22:15:59;10.77;;;8.35;;
32196;SDS011;18697;42.770;23.400;2022-09-25T22:18:27;12.30;;;8.02;;
32196;SDS011;18697;42.770;23.400;2022-09-25T22:20:53;12.02;;;6.93;;
32196;SDS011;18697;42.770;23.400;2022-09-25T22:23:19;9.38;;;6.95;;
32196;SDS011;18697;42.770;23.400;2022-09-25T22:25:45;13.30;;;7.43;;
32196;SDS011;18697;42.770;23.400;2022-09-25T22:28:11;9.93;;;6.35;;
32196;SDS011;18697;42.770;23.400;2022-09-25T22:30:37;10.77;;;6.50;;
32196;SDS011;18697;42.770;23.400;2022-09-25T22:33:03;11.77;;;6.18;;
32196;SDS011;18697;42.770;23.400;2022-09-25T22:37:53;9.75;;;6.15;;
32196;SDS011;18697;42.770;23.400;2022-09-25T22:40:19;6.85;;;4.93;;
32196;SDS011;18697;42.770;23.400;2022-09-25T22:42:44;9.60;;;5.40;;
32196;SDS011;18697;42.770;23.400;2022-09-25T22:45:10;8.60;;;5.50;;
32196;SDS011;18697;42.770;23.400;2022-09-25T22:47:35;9.40;;;5.45;;
32196;SDS011;18697;42.770;23.400;2022-09-25T22:52:26;9.30;;;5.05;;
32196;SDS011;18697;42.770;23.400;2022-09-25T22:54:51;11.70;;;6.47;;
32196;SDS011;18697;42.770;23.400;2022-09-25T22:59:42;8.43;;;6.03;;
32196;SDS011;18697;42.770;23.400;2022-09-25T23:04:32;9.70;;;5.60;;
32196;SDS011;18697;42.770;23.400;2022-09-25T23:09:23;8.18;;;5.25;;
32196;SDS011;18697;42.770;23.400;2022-09-25T23:11:50;11.10;;;5.45;;
32196;SDS011;18697;42.770;23.400;2022-09-25T23:14:18;7.07;;;5.50;;
32196;SDS011;18697;42.770;23.400;2022-09-25T23:16:46;6.53;;;4.63;;
32196;SDS011;18697;42.770;23.400;2022-09-25T23:19:12;9.48;;;4.90;;
32196;SDS011;18697;42.770;23.400;2022-09-25T23:21:38;9.93;;;5.68;;
32196;SDS011;18697;42.770;23.400;2022-09-25T23:24:05;6.45;;;4.90;;
32196;SDS011;18697;42.770;23.400;2022-09-25T23:26:34;7.70;;;5.65;;
32196;SDS011;18697;42.770;23.400;2022-09-25T23:28:59;12.43;;;6.03;;
32196;SDS011;18697;42.770;23.400;2022-09-25T23:31:28;7.25;;;4.72;;
32196;SDS011;18697;42.770;23.400;2022-09-25T23:33:56;14.00;;;5.25;;
32196;SDS011;18697;42.770;23.400;2022-09-25T23:36:28;7.18;;;4.85;;
32196;SDS011;18697;42.770;23.400;2022-09-25T23:38:55;7.35;;;4.88;;
32196;SDS011;18697;42.770;23.400;2022-09-25T23:41:25;9.95;;;4.70;;
32196;SDS011;18697;42.770;23.400;2022-09-25T23:43:53;14.00;;;5.90;;
32196;SDS011;18697;42.770;23.400;2022-09-25T23:46:20;8.18;;;5.32;;
32196;SDS011;18697;42.770;23.400;2022-09-25T23:48:48;8.00;;;4.78;;
32196;SDS011;18697;42.770;23.400;2022-09-25T23:51:15;7.32;;;5.22;;
32196;SDS011;18697;42.770;23.400;2022-09-25T23:53:41;9.30;;;5.43;;
32196;SDS011;18697;42.770;23.400;2022-09-25T23:56:08;5.90;;;4.65;;
32196;SDS011;18697;42.770;23.400;2022-09-25T23:58:36;8.68;;;5.10;;
